createdAt,value
2018-12-03T00:01:21.869Z,11.74
2018-12-03T00:03:52.410Z,11.69
2018-12-03T00:06:22.962Z,11.76
2018-12-03T00:08:53.990Z,11.86
2018-12-03T00:11:24.889Z,11.82
2018-12-03T00:13:55.501Z,11.82
2018-12-03T00:16:25.713Z,11.94
2018-12-03T00:18:55.997Z,11.94
2018-12-03T00:21:26.311Z,11.89
2018-12-03T00:23:56.812Z,11.90
2018-12-03T00:26:28.815Z,11.91
2018-12-03T00:28:59.170Z,11.98
2018-12-03T00:31:29.578Z,12.04
2018-12-03T00:34:00.083Z,12.10
2018-12-03T00:36:30.451Z,12.02
2018-12-03T00:39:00.822Z,12.07
2018-12-03T00:41:31.142Z,12.02
2018-12-03T00:44:02.008Z,12.02
2018-12-03T00:46:33.739Z,12.00
2018-12-03T00:49:04.387Z,12.03
2018-12-03T00:51:35.760Z,12.10
2018-12-03T00:54:06.676Z,12.03
2018-12-03T00:56:38.440Z,11.98
2018-12-03T00:59:09.606Z,12.04
2018-12-03T01:01:40.420Z,11.98
2018-12-03T01:04:12.255Z,11.99
2018-12-03T01:06:43.035Z,11.94
2018-12-03T01:09:13.612Z,12.00
2018-12-03T01:11:44.594Z,12.02
2018-12-03T01:14:14.729Z,11.95
2018-12-03T01:16:44.740Z,11.92
2018-12-03T01:19:15.434Z,11.84
2018-12-03T01:21:46.329Z,11.83
2018-12-03T01:24:16.561Z,11.77
2018-12-03T01:26:46.779Z,11.77
2018-12-03T01:29:17.402Z,11.73
2018-12-03T01:31:47.662Z,11.73
2018-12-03T01:34:18.886Z,11.71
2018-12-03T01:36:49.511Z,11.70
2018-12-03T01:39:19.590Z,11.68
2018-12-03T01:41:49.653Z,11.76
2018-12-03T01:44:19.726Z,11.77
2018-12-03T01:46:49.715Z,11.81
2018-12-03T01:49:20.481Z,11.76
2018-12-03T01:51:51.412Z,11.83
2018-12-03T01:54:23.264Z,11.68
2018-12-03T01:56:54.711Z,11.73
2018-12-03T01:59:24.782Z,11.67
2018-12-03T02:01:55.051Z,11.72
2018-12-03T02:04:25.937Z,11.67
2018-12-03T02:06:56.174Z,11.59
2018-12-03T02:09:26.870Z,11.71
2018-12-03T02:11:56.854Z,11.77
2018-12-03T02:14:26.906Z,11.71
2018-12-03T02:16:59.322Z,11.70
2018-12-03T02:19:29.428Z,11.72
2018-12-03T02:22:00.027Z,11.70
2018-12-03T02:24:30.107Z,11.72
2018-12-03T02:27:00.107Z,11.84
2018-12-03T02:29:30.946Z,11.82
2018-12-03T02:32:01.152Z,11.73
2018-12-03T02:34:32.602Z,11.70
2018-12-03T02:37:02.646Z,11.65
2018-12-03T02:39:33.573Z,11.63
2018-12-03T02:42:03.631Z,11.55
2018-12-03T02:44:34.175Z,11.62
2018-12-03T02:47:05.345Z,11.58
2018-12-03T02:49:36.952Z,11.52
2018-12-03T02:52:07.648Z,11.53
2018-12-03T02:54:39.144Z,11.63
2018-12-03T02:57:09.834Z,11.65
2018-12-03T02:59:39.803Z,11.64
2018-12-03T03:02:09.870Z,11.63
2018-12-03T03:04:40.670Z,11.67
2018-12-03T03:07:11.473Z,11.63
2018-12-03T03:09:41.655Z,11.60
2018-12-03T03:12:11.938Z,11.59
2018-12-03T03:14:42.677Z,11.68
2018-12-03T03:17:13.735Z,11.64
2018-12-03T03:19:43.888Z,11.58
2018-12-03T03:22:14.958Z,11.50
2018-12-03T03:24:45.744Z,11.54
2018-12-03T03:27:16.354Z,11.54
2018-12-03T03:29:46.454Z,11.49
2018-12-03T03:32:17.732Z,11.42
2018-12-03T03:34:48.796Z,11.44
2018-12-03T03:37:19.617Z,11.43
2018-12-03T03:39:51.971Z,11.51
2018-12-03T03:42:23.543Z,11.50
2018-12-03T03:44:53.677Z,11.55
2018-12-03T03:47:23.778Z,11.53
2018-12-03T03:49:54.939Z,11.45
2018-12-03T03:52:26.132Z,11.43
2018-12-03T03:54:57.662Z,11.57
2018-12-03T03:57:27.890Z,11.50
2018-12-03T03:59:57.886Z,11.56
2018-12-03T04:02:29.455Z,11.52
2018-12-03T04:05:00.223Z,11.56
2018-12-03T04:07:30.524Z,11.53
2018-12-03T04:10:01.282Z,11.54
2018-12-03T04:12:32.866Z,11.47
2018-12-03T04:15:04.400Z,11.47
2018-12-03T04:17:35.434Z,11.51
2018-12-03T04:20:10.685Z,11.45
2018-12-03T04:22:41.984Z,11.57
2018-12-03T04:25:14.106Z,11.64
2018-12-03T04:27:46.159Z,11.64
2018-12-03T04:30:18.992Z,11.59
2018-12-03T04:32:50.051Z,11.58
2018-12-03T04:35:20.709Z,11.58
2018-12-03T04:37:51.439Z,11.63
2018-12-03T04:40:22.142Z,11.60
2018-12-03T04:42:52.816Z,11.64
2018-12-03T04:45:23.981Z,11.63
2018-12-03T04:47:56.078Z,11.74
2018-12-03T04:50:26.045Z,11.75
2018-12-03T04:52:56.559Z,11.83
2018-12-03T04:55:26.707Z,11.89
2018-12-03T04:57:56.824Z,11.90
2018-12-03T05:00:28.185Z,11.84
2018-12-03T05:03:00.173Z,11.90
2018-12-03T05:05:31.862Z,11.85
2018-12-03T05:08:02.217Z,11.96
2018-12-03T05:10:34.226Z,11.95
2018-12-03T05:13:06.891Z,11.97
2018-12-03T05:15:37.041Z,11.93
2018-12-03T05:18:07.804Z,11.90
2018-12-03T05:20:37.869Z,11.86
2018-12-03T05:23:08.726Z,11.89
2018-12-03T05:25:39.344Z,11.87
2018-12-03T05:28:11.541Z,11.81
2018-12-03T05:30:42.191Z,11.89
2018-12-03T05:33:12.394Z,11.82
2018-12-03T05:35:43.621Z,11.80
2018-12-03T05:38:13.802Z,11.87
2018-12-03T05:40:45.383Z,11.92
2018-12-03T05:43:17.298Z,11.88
2018-12-03T05:45:49.286Z,11.95
2018-12-03T05:48:20.902Z,11.97
2018-12-03T05:50:50.943Z,11.99
2018-12-03T05:53:21.026Z,12.02
2018-12-03T05:55:51.094Z,11.94
2018-12-03T05:58:21.159Z,12.03
2018-12-03T06:00:54.202Z,12.00
2018-12-03T06:03:26.037Z,12.01
2018-12-03T06:05:57.291Z,11.98
2018-12-03T06:08:28.053Z,11.94
2018-12-03T06:10:58.755Z,11.93
2018-12-03T06:13:28.955Z,11.96
2018-12-03T06:15:59.627Z,11.97
2018-12-03T06:18:30.715Z,11.93
2018-12-03T06:21:00.681Z,11.97
2018-12-03T06:23:31.471Z,11.87
2018-12-03T06:26:03.010Z,11.85
2018-12-03T06:28:34.513Z,11.79
2018-12-03T06:31:04.691Z,11.82
2018-12-03T06:33:35.425Z,11.75
2018-12-03T06:36:06.026Z,11.71
2018-12-03T06:38:36.165Z,11.75
2018-12-03T06:41:07.676Z,11.66
2018-12-03T06:43:38.122Z,11.66
2018-12-03T06:46:08.830Z,11.71
2018-12-03T06:48:39.931Z,11.72
2018-12-03T06:51:10.107Z,11.65
2018-12-03T06:53:40.309Z,11.68
2018-12-03T06:56:11.846Z,11.61
2018-12-03T06:58:42.603Z,11.61
2018-12-03T07:01:13.320Z,11.55
2018-12-03T07:03:43.338Z,11.57
2018-12-03T07:06:13.529Z,11.56
2018-12-03T07:08:45.039Z,11.60
2018-12-03T07:11:16.267Z,11.60
2018-12-03T07:13:47.277Z,11.56
2018-12-03T07:16:17.459Z,11.62
2018-12-03T07:18:48.956Z,11.64
2018-12-03T07:21:18.951Z,11.64
2018-12-03T07:23:49.024Z,11.63
2018-12-03T07:26:20.381Z,11.65
2018-12-03T07:28:51.455Z,11.71
2018-12-03T07:31:22.466Z,11.80
2018-12-03T07:33:53.954Z,11.70
2018-12-03T07:36:24.497Z,11.70
2018-12-03T07:38:55.606Z,11.75
2018-12-03T07:41:26.201Z,11.78
2018-12-03T07:43:56.326Z,11.84
2018-12-03T07:46:27.115Z,11.84
2018-12-03T07:48:57.219Z,11.85
2018-12-03T07:51:28.072Z,11.82
2018-12-03T07:53:59.098Z,11.81
2018-12-03T07:56:29.069Z,11.87
2018-12-03T07:58:59.658Z,11.91
2018-12-03T08:01:30.534Z,11.86
2018-12-03T08:04:02.016Z,11.85
2018-12-03T08:06:34.037Z,11.89
2018-12-03T08:09:07.141Z,11.85
2018-12-03T08:11:37.682Z,11.84
2018-12-03T08:14:08.512Z,11.86
2018-12-03T08:16:39.950Z,11.86
2018-12-03T08:19:09.997Z,11.90
2018-12-03T08:21:40.199Z,11.82
2018-12-03T08:24:14.055Z,11.85
2018-12-03T08:26:44.170Z,11.87
2018-12-03T08:29:15.380Z,11.82
2018-12-03T08:31:45.453Z,11.95
2018-12-03T08:34:17.435Z,11.82
2018-12-03T08:36:47.522Z,11.78
2018-12-03T08:39:19.592Z,11.92
2018-12-03T08:41:51.651Z,11.85
2018-12-03T08:44:21.715Z,11.82
2018-12-03T08:46:53.437Z,11.87
2018-12-03T08:49:23.428Z,11.95
2018-12-03T08:51:54.677Z,12.03
2018-12-03T08:54:26.110Z,12.10
2018-12-03T08:56:57.400Z,12.18
2018-12-03T08:59:33.910Z,12.26
2018-12-03T09:02:04.540Z,12.21
2018-12-03T09:04:36.170Z,12.14
2018-12-03T09:07:07.513Z,12.18
2018-12-03T09:09:38.256Z,12.18
2018-12-03T09:12:08.358Z,12.17
2018-12-03T09:14:38.948Z,12.14
2018-12-03T09:17:09.869Z,12.34
2018-12-03T09:19:40.898Z,12.86
2018-12-03T09:22:12.768Z,13.28
2018-12-03T09:24:43.682Z,13.81
2018-12-03T09:27:17.209Z,13.86
2018-12-03T09:29:48.572Z,14.03
2018-12-03T09:32:18.751Z,14.17
2018-12-03T09:34:49.628Z,14.21
2018-12-03T09:37:20.217Z,14.21
2018-12-03T09:39:50.972Z,14.17
2018-12-03T09:42:21.634Z,14.20
2018-12-03T09:44:51.633Z,14.14
2018-12-03T09:47:22.598Z,13.76
2018-12-03T09:49:53.310Z,13.40
2018-12-03T09:52:23.910Z,13.37
2018-12-03T09:54:55.191Z,13.13
2018-12-03T09:57:26.395Z,12.90
2018-12-03T09:59:57.707Z,12.72
2018-12-03T10:02:29.066Z,12.83
2018-12-03T10:05:00.778Z,12.76
2018-12-03T10:07:31.953Z,12.79
2018-12-03T10:10:02.738Z,12.63
2018-12-03T10:12:34.501Z,12.50
2018-12-03T10:15:04.710Z,12.41
2018-12-03T10:17:35.449Z,12.39
2018-12-03T10:20:06.679Z,12.42
2018-12-03T10:22:36.716Z,12.68
2018-12-03T10:25:13.083Z,12.98
2018-12-03T10:27:44.817Z,13.09
2018-12-03T10:30:23.469Z,13.23
2018-12-03T10:32:54.309Z,13.28
2018-12-03T10:35:24.602Z,13.15
2018-12-03T10:37:55.885Z,13.21
2018-12-03T10:40:26.996Z,13.20
2018-12-03T10:42:57.578Z,13.28
2018-12-03T10:45:29.085Z,13.26
2018-12-03T10:48:00.544Z,13.27
2018-12-03T10:50:31.294Z,13.21
2018-12-03T10:53:02.446Z,13.24
2018-12-03T10:55:33.238Z,13.25
2018-12-03T10:58:04.618Z,13.06
2018-12-03T11:00:40.601Z,13.14
2018-12-03T11:03:15.089Z,13.11
2018-12-03T11:05:50.822Z,13.04
2018-12-03T11:08:24.415Z,13.14
2018-12-03T11:10:56.271Z,13.35
2018-12-03T11:13:26.411Z,13.38
2018-12-03T11:15:57.821Z,13.48
2018-12-03T11:18:28.151Z,13.49
2018-12-03T11:21:04.226Z,13.43
2018-12-03T11:23:34.563Z,13.43
2018-12-03T11:26:05.579Z,13.37
2018-12-03T11:28:40.299Z,13.31
2018-12-03T11:31:27.702Z,13.27
2018-12-03T11:33:58.438Z,13.19
2018-12-03T11:37:16.839Z,13.12
2018-12-03T11:39:56.710Z,13.19
2018-12-03T11:42:31.063Z,13.18
2018-12-03T11:45:01.082Z,13.14
2018-12-03T11:47:31.301Z,13.05
2018-12-03T11:50:02.152Z,13.10
2018-12-03T11:52:34.868Z,13.03
2018-12-03T11:55:05.893Z,12.94
2018-12-03T11:57:36.737Z,13.05
2018-12-03T12:00:13.201Z,13.02
2018-12-03T12:02:43.380Z,12.86
2018-12-03T12:05:13.705Z,12.79
2018-12-03T12:07:44.316Z,12.89
2018-12-03T12:10:15.413Z,12.83
2018-12-03T12:12:46.236Z,12.81
2018-12-03T12:15:16.254Z,12.79
2018-12-03T12:17:47.502Z,12.77
2018-12-03T12:20:18.772Z,12.73
2018-12-03T12:22:51.242Z,12.75
2018-12-03T12:25:22.478Z,12.85
2018-12-03T12:27:56.158Z,12.80
2018-12-03T12:30:27.501Z,12.84
2018-12-03T12:32:58.172Z,12.81
2018-12-03T12:35:28.211Z,12.92
2018-12-03T12:37:58.405Z,12.78
2018-12-03T12:40:28.965Z,12.87
2018-12-03T12:42:59.790Z,12.85
2018-12-03T12:45:36.208Z,12.85
2018-12-03T12:48:06.653Z,12.83
2018-12-03T12:50:37.238Z,12.86
2018-12-03T12:53:07.868Z,12.93
2018-12-03T12:55:40.265Z,12.83
2018-12-03T12:58:10.253Z,12.77
2018-12-03T13:00:40.505Z,12.81
2018-12-03T13:03:11.333Z,12.81
2018-12-03T13:05:41.977Z,12.79
2018-12-03T13:08:12.217Z,12.92
2018-12-03T13:10:43.465Z,12.92
2018-12-03T13:13:13.458Z,12.91
2018-12-03T13:15:44.682Z,12.95
2018-12-03T13:18:14.784Z,12.82
2018-12-03T13:20:45.417Z,12.82
2018-12-03T13:23:15.409Z,12.78
2018-12-03T13:25:45.601Z,12.73
2018-12-03T13:28:15.621Z,12.81
2018-12-03T13:30:46.509Z,12.76
2018-12-03T13:33:16.694Z,12.78
2018-12-03T13:35:47.252Z,12.75
2018-12-03T13:38:17.739Z,12.59
2018-12-03T13:40:47.748Z,12.58
2018-12-03T13:43:18.438Z,12.58
2018-12-03T13:45:48.369Z,12.53
2018-12-03T13:48:18.373Z,12.48
2018-12-03T13:50:49.095Z,12.37
2018-12-03T13:53:20.160Z,12.41
2018-12-03T13:55:51.261Z,12.32
2018-12-03T13:58:21.330Z,12.36
2018-12-03T14:00:51.372Z,12.25
2018-12-03T14:03:29.188Z,12.19
2018-12-03T14:06:38.234Z,12.10
2018-12-03T14:09:52.363Z,12.04
2018-12-03T14:12:45.332Z,12.06
2018-12-03T14:16:47.827Z,11.98
2018-12-03T14:19:23.311Z,11.98
2018-12-03T14:22:06.813Z,12.07
2018-12-03T14:24:37.654Z,12.09
2018-12-03T14:27:08.739Z,12.12
2018-12-03T14:29:38.807Z,12.07
2018-12-03T14:32:09.748Z,12.01
2018-12-03T14:34:39.814Z,12.03
2018-12-03T14:37:10.649Z,11.91
2018-12-03T14:39:40.672Z,11.95
2018-12-03T14:42:11.550Z,11.88
2018-12-03T14:44:42.194Z,11.91
2018-12-03T14:47:12.990Z,11.89
2018-12-03T14:49:43.091Z,11.77
2018-12-03T14:52:14.667Z,11.62
2018-12-03T14:54:45.277Z,11.56
2018-12-03T14:57:15.357Z,11.48
2018-12-03T14:59:45.886Z,11.36
2018-12-03T15:02:16.574Z,11.26
2018-12-03T15:04:46.716Z,11.27
2018-12-03T15:07:18.121Z,11.24
2018-12-03T15:09:48.807Z,11.20
2018-12-03T15:12:18.891Z,11.09
2018-12-03T15:14:49.036Z,11.00
2018-12-03T15:17:19.638Z,10.96
2018-12-03T15:19:49.584Z,10.88
2018-12-03T15:22:21.241Z,10.80
2018-12-03T15:24:51.910Z,10.78
2018-12-03T15:27:23.407Z,10.80
2018-12-03T15:29:54.607Z,10.77
2018-12-03T15:32:25.222Z,10.81
2018-12-03T15:34:57.054Z,10.87
2018-12-03T15:37:27.539Z,10.89
2018-12-03T15:39:58.877Z,10.99
2018-12-03T15:42:29.660Z,10.93
2018-12-03T15:45:00.559Z,10.96
2018-12-03T15:47:31.171Z,10.93
2018-12-03T15:50:02.934Z,10.92
2018-12-03T15:52:33.887Z,10.96
2018-12-03T15:55:05.603Z,11.05
2018-12-03T15:57:35.660Z,10.95
2018-12-03T16:00:09.405Z,10.98
2018-12-03T16:02:40.005Z,10.92
2018-12-03T16:05:16.655Z,10.99
2018-12-03T16:07:46.727Z,10.91
2018-12-03T16:10:16.949Z,10.97
2018-12-03T16:12:48.359Z,10.90
2018-12-03T16:15:18.428Z,10.91
2018-12-03T16:17:49.676Z,10.84
2018-12-03T16:20:20.882Z,10.80
2018-12-03T16:22:52.218Z,10.73
2018-12-03T16:25:22.893Z,10.72
2018-12-03T16:27:53.342Z,10.72
2018-12-03T16:30:25.455Z,10.73
2018-12-03T16:32:56.976Z,10.66
2018-12-03T16:35:27.036Z,10.56
2018-12-03T16:37:57.089Z,10.53
2018-12-03T16:40:28.262Z,10.55
2018-12-03T16:42:59.142Z,10.46
2018-12-03T16:45:29.098Z,10.41
2018-12-03T16:47:59.730Z,10.39
2018-12-03T16:50:31.503Z,10.41
2018-12-03T16:53:01.950Z,10.29
2018-12-03T16:55:32.053Z,10.30
2018-12-03T16:58:02.698Z,10.29
2018-12-03T17:00:34.192Z,10.30
2018-12-03T17:03:05.148Z,10.37
2018-12-03T17:05:37.439Z,10.41
2018-12-03T17:08:07.515Z,10.41
2018-12-03T17:10:38.241Z,10.45
2018-12-03T17:13:08.470Z,10.45
2018-12-03T17:15:38.411Z,10.39
2018-12-03T17:18:09.259Z,10.47
2018-12-03T17:20:52.679Z,10.42
2018-12-03T17:24:11.868Z,10.39
2018-12-03T17:26:43.152Z,10.44
2018-12-03T17:29:13.101Z,10.40
2018-12-03T17:31:43.694Z,10.40
2018-12-03T17:34:15.234Z,10.40
2018-12-03T17:36:45.765Z,10.37
2018-12-03T17:39:16.527Z,10.37
2018-12-03T17:41:46.650Z,10.34
2018-12-03T17:44:18.699Z,10.34
2018-12-03T17:46:48.851Z,10.28
2018-12-03T17:49:18.841Z,10.27
2018-12-03T17:51:48.866Z,10.32
2018-12-03T17:54:19.066Z,10.28
2018-12-03T17:56:49.872Z,10.18
2018-12-03T17:59:20.069Z,10.13
2018-12-03T18:01:51.142Z,10.12
2018-12-03T18:04:22.348Z,10.17
2018-12-03T18:06:53.188Z,10.30
2018-12-03T18:09:23.923Z,10.33
2018-12-03T18:11:54.150Z,10.34
2018-12-03T18:14:26.118Z,10.39
2018-12-03T18:16:57.992Z,10.44
2018-12-03T18:19:28.114Z,10.46
2018-12-03T18:21:58.146Z,10.44
2018-12-03T18:24:28.821Z,10.57
2018-12-03T18:27:00.333Z,10.60
2018-12-03T18:29:30.913Z,10.58
2018-12-03T18:32:02.729Z,10.63
2018-12-03T18:34:32.758Z,10.68
2018-12-03T18:37:04.111Z,10.77
2018-12-03T18:39:35.325Z,10.66
2018-12-03T18:42:06.003Z,10.63
2018-12-03T18:44:36.834Z,10.63
2018-12-03T18:47:07.039Z,10.65
2018-12-03T18:49:41.423Z,10.59
2018-12-03T18:52:13.207Z,10.55
2018-12-03T18:54:43.962Z,10.55
2018-12-03T18:57:14.001Z,10.57
2018-12-03T18:59:44.680Z,10.62
2018-12-03T19:02:14.873Z,10.64
2018-12-03T19:04:45.670Z,10.66
2018-12-03T19:07:16.111Z,10.65
2018-12-03T19:09:47.845Z,10.65
2018-12-03T19:12:18.736Z,10.62
2018-12-03T19:17:50.098Z,10.67
2018-12-03T19:20:20.701Z,10.65
2018-12-03T19:22:51.453Z,10.60
2018-12-03T19:25:22.394Z,10.59
2018-12-03T19:28:12.559Z,10.58
2018-12-03T19:30:43.774Z,10.58
2018-12-03T19:33:14.886Z,10.65
2018-12-03T19:35:45.580Z,10.58
2018-12-03T19:38:17.325Z,10.50
2018-12-03T19:40:47.430Z,10.44
2018-12-03T19:43:18.077Z,10.40
2018-12-03T19:45:48.906Z,10.34
2018-12-03T19:48:19.035Z,10.43
2018-12-03T19:50:51.175Z,10.37
2018-12-03T19:53:21.501Z,10.37
2018-12-03T19:55:52.650Z,10.42
2018-12-03T19:58:31.489Z,10.46
2018-12-03T20:01:01.600Z,10.32
2018-12-03T20:03:31.727Z,10.31
2018-12-03T20:06:02.550Z,10.22
2018-12-03T20:08:33.603Z,10.24
2018-12-03T20:11:04.725Z,10.17
2018-12-03T20:13:34.853Z,10.14
2018-12-03T20:16:05.203Z,10.15
2018-12-03T20:18:37.351Z,10.23
2018-12-03T20:21:17.074Z,10.25
2018-12-03T20:23:54.899Z,10.18
2018-12-03T20:26:33.514Z,10.21
2018-12-03T20:29:27.578Z,10.21
2018-12-03T20:34:15.607Z,10.37
2018-12-03T20:37:37.987Z,10.38
2018-12-03T20:40:57.718Z,10.46
2018-12-03T20:43:30.584Z,10.52
2018-12-03T20:46:12.725Z,10.54
2018-12-03T20:48:58.765Z,10.55
2018-12-03T20:51:39.318Z,10.60
2018-12-03T20:54:10.309Z,10.66
2018-12-03T20:56:40.908Z,10.60
2018-12-03T20:59:11.055Z,10.68
2018-12-03T21:01:46.218Z,10.63
2018-12-03T21:04:21.021Z,10.62
2018-12-03T21:06:51.404Z,10.58
2018-12-03T21:09:22.042Z,10.65
2018-12-03T21:11:53.134Z,10.69
2018-12-03T21:14:23.267Z,10.68
2018-12-03T21:16:54.594Z,10.74
2018-12-03T21:19:25.663Z,10.77
2018-12-03T21:21:58.261Z,10.88
2018-12-03T21:24:28.997Z,10.91
2018-12-03T21:26:59.079Z,10.84
2018-12-03T21:29:29.124Z,10.76
2018-12-03T21:31:59.672Z,10.79
2018-12-03T21:34:30.820Z,10.69
2018-12-03T21:37:00.997Z,10.62
2018-12-03T21:39:32.330Z,10.56
2018-12-03T21:42:02.316Z,10.64
2018-12-03T21:44:32.498Z,10.71
2018-12-03T21:47:02.670Z,10.89
2018-12-03T21:49:32.732Z,10.74
2018-12-03T21:52:02.811Z,10.71
2018-12-03T21:54:34.241Z,10.54
2018-12-03T21:57:10.653Z,10.47
2018-12-03T21:59:38.581Z,10.42
2018-12-03T22:02:09.169Z,10.36
2018-12-03T22:04:39.293Z,10.24
2018-12-03T22:07:09.301Z,10.21
2018-12-03T22:09:40.127Z,10.34
2018-12-03T22:12:10.965Z,10.38
2018-12-03T22:14:41.667Z,10.26
2018-12-03T22:17:12.522Z,10.32
2018-12-03T22:19:43.253Z,10.25
2018-12-03T22:22:13.995Z,10.18
2018-12-03T22:24:45.297Z,10.12
2018-12-03T22:27:15.674Z,10.23
2018-12-03T22:29:46.388Z,10.19
2018-12-03T22:32:17.376Z,10.21
2018-12-03T22:34:49.566Z,10.28
2018-12-03T22:37:20.057Z,10.39
2018-12-03T22:39:50.602Z,10.38
2018-12-03T22:42:23.483Z,10.38
2018-12-03T22:44:54.353Z,10.43
2018-12-03T22:47:24.238Z,10.43
2018-12-03T22:49:55.441Z,10.57
2018-12-03T22:52:25.940Z,10.50
2018-12-03T22:54:56.797Z,10.55
2018-12-03T22:57:28.477Z,10.57
2018-12-03T22:59:59.435Z,10.54
2018-12-03T23:02:30.835Z,10.54
2018-12-03T23:05:00.835Z,10.59
2018-12-03T23:07:32.082Z,10.64
2018-12-03T23:10:02.192Z,10.67
2018-12-03T23:12:32.661Z,10.59
2018-12-03T23:15:04.014Z,10.58
2018-12-03T23:17:35.669Z,10.53
2018-12-03T23:20:07.842Z,10.59
2018-12-03T23:22:37.841Z,10.49
2018-12-03T23:25:08.886Z,10.48
2018-12-03T23:27:39.841Z,10.40
2018-12-03T23:30:10.283Z,10.46
2018-12-03T23:32:40.934Z,10.43
2018-12-03T23:35:11.038Z,10.39
2018-12-03T23:37:41.061Z,10.36
2018-12-03T23:40:12.207Z,10.24
2018-12-03T23:42:42.891Z,9.96
2018-12-03T23:45:12.839Z,9.85
2018-12-03T23:47:42.857Z,9.73
2018-12-03T23:50:14.124Z,9.52
2018-12-03T23:52:44.603Z,9.45
2018-12-03T23:55:15.996Z,9.42
2018-12-03T23:57:47.166Z,9.18
